FWCO2: Wolf Creek nr Ft. Supply 9S

Data processed at Wed May 22 2019 23:50


All information presented herein is the property of the government of the United States of America and may be revised or deleted at any time without prior notice.
Dissemination of this information without the expressed written consent of the Public Affairs Office, Tulsa District U.S. Army Corps of Engineers is strictly prohibited.
These data are gathered electronically and, as presented, have not undergone any form of quality control. These data are not guaranteed to be valid or correct.
Go to home page.
Go to station list.
Go to home page.

Upstream stations:

Downstream station:
Previous Day
Next Day
Current Day
    
SHEF ID:       FWCO2     Wolf Creek nr Ft. Supply 9S
STATION TYPE:  

               PRECIP     STAGE  RIV-FLOW   VOLTAGE  BAT-LOAD
                   in        ft       cfs      volt      volt
              Ccp-Rev   Ccp-Rev   Ccp-Rev   Ccp-Rev   Ccp-Rev
(US/Central)
05/22 00:00      0.00     11.10      1234     12.65     12.57
05/22 01:00      0.00     11.03      1191     12.65     12.57
05/22 02:00      0.00     10.93      1131     12.57     12.57
05/22 03:00      0.00     10.83      1074     12.57     12.57
05/22 04:00      0.00     10.74      1024     12.57     12.49
05/22 05:00      0.00     10.68       992     12.57     12.49
05/22 06:00      0.00     10.53       916     12.57     12.49
05/22 07:00      0.00     10.49       897     12.57     12.49
05/22 08:00      0.00     10.33       822     12.73     12.57
05/22 09:00      0.00     10.26       791     13.05     12.65
05/22 10:00      0.00     10.24       782     14.48     12.97
05/22 11:00      0.00     10.16       749     14.32     14.40
05/22 12:00      0.00     10.15       744     14.24     14.24
05/22 13:00      0.00     10.10       724     14.16     14.16
05/22 14:00      0.00     10.06       708     14.08     13.53
05/22 15:00      0.00      9.99       680     14.08     12.97
05/22 16:00      0.00     10.05       704     14.00     12.89
05/22 17:00      0.00      9.94       661     13.92     12.89
05/22 18:00      0.00      9.89       643     13.84     12.81
05/22 19:00      0.00      9.89       643     12.89     12.73
05/22 20:00      0.00      9.85       628     12.73     12.65
05/22 21:00      0.00      9.80       611     12.65     12.65
05/22 22:00      0.00      9.74       590     12.65     12.57
05/22 23:00      0.00      9.75       593     12.65     12.57